Victor, WV (25938)

11:14 PM EDT on March 29, 2015 (GMT -0400)
gauley bridge | | Change Station
CLOSE
Current Station
Personal Weather Station
Location: Gauley Bridge, WV
Elevation: 807 ft
Nearby Weather Stations

Elev 807 ft 38.17 °N, 81.19 °W | Updated 3 seconds ago

Overcast
Overcast
49.3 °F
Feels Like 49 °F
N
1.2
Wind Variable Wind from ESE
Gusts 1.3 mph

Today
High -- | Low -- °F
--% Chance of Precip.
Yesterday
High -- | Low -- °F
Precip. -- in
7:14 AM 7:44 PM
Waxing Gibbous, 76% visible
Pressure 30.08 in
Visibility 10.0 miles
Clouds Overcast 11000 ft
Windchill 49 °F
Dew Point 20 °F
Humidity 31%
Rainfall 0.00 in
Snow Depth Not available.
UV 0 out of 12
Pollen 7.70 out of 12
Air Quality Not available.
Flu Activity Not available.
METAR KBKW 300251Z AUTO 19007KT 10SM OVC110 07/M14 A3003 RMK AO2 SLP186 T00721144 55011 $

More Conditions Fewer Conditions

Pressure 30.08 in
Visibility 10.0 miles
Clouds Overcast 11000 ft
Windchill 49 °F
Dew Point 20 °F
Humidity 31%
Rainfall 0.00 in
Snow Depth Not available.
UV 0 out of 12
Pollen 7.70 out of 12
Air Quality Not available.
Flu Activity Not available.
METAR KBKW 300251Z AUTO 19007KT 10SM OVC110 07/M14 A3003 RMK AO2 SLP186 T00721144 55011 $

More Conditions Fewer Conditions

10-Day Weather Forecast

Almanac

Astronomy

Mar. 29, 2015 Rise Set
Actual Time
Civil Twilight
Nautical Twilight
Astronomical Twilight
Moon
Length of Visible Light
Length of Day
Tomorrow will be .
, % of the Moon is Illuminated

Today's Extremes

State Highs State Lows

Community

WunderPhotos

Upload Photos

1,809,420 photos uploaded!

WunderBlogs® & News

Nearby

Air Quality

  Air Quality AQ Index Pollutant
Not available.

Snow Depth

Station Depth Elevation

Earthquake Activity

City Distance Mag. Time & Date
Minimum magnitude displayed is 2.5.

Coastal Water Temperatures

Place Temperature

Stations

Nearby Weather Stations

Station Location Temp. Windchill Dew Point Humidity Wind Precip. Elev Updated Type